Aurora, WV

9:04 PM EDT on March 27, 2015 (GMT -0400)
Petersburg | | Change Station
CLOSE
Current Station
Airport
Location: Petersburg,
Elevation: 961 ft
Nearby Weather Stations

Elev 961 ft 38.99 °N, 79.15 °W | Updated 9 minutes ago

Overcast
Overcast
38 °F
Feels Like 33 °F
N
7
Wind Variable Wind from NW
Gusts mph

Today
High -- | Low -- °F
--% Chance of Precip.
Yesterday
High -- | Low -- °F
Precip. -- in
7:11 AM 7:37 PM
First Quarter, 57% visible
Pressure 29.88 in
Visibility 7.0 miles
Clouds Scattered Clouds 4000 ft
Overcast 5000 ft
Windchill 33 °F
Dew Point 24 °F
Humidity 57%
Rainfall 0.04 in
Snow Depth Not available.
UV 0 out of 12
Pollen 6.20 out of 12
Air Quality Not available.
Flu Activity Not available.
METAR KW99 280055Z AUTO 31006KT 7SM -SN SCT040 OVC050 04/M04 A2988 RMK AO2 T00351044

More Conditions Fewer Conditions

Pressure 29.88 in
Visibility 7.0 miles
Clouds Scattered Clouds 4000 ft
Overcast 5000 ft
Windchill 33 °F
Dew Point 24 °F
Humidity 57%
Rainfall 0.04 in
Snow Depth Not available.
UV 0 out of 12
Pollen 6.20 out of 12
Air Quality Not available.
Flu Activity Not available.
METAR KW99 280055Z AUTO 31006KT 7SM -SN SCT040 OVC050 04/M04 A2988 RMK AO2 T00351044

More Conditions Fewer Conditions

10-Day Weather Forecast

Almanac

Astronomy

Mar. 27, 2015 Rise Set
Actual Time
Civil Twilight
Nautical Twilight
Astronomical Twilight
Moon
Length of Visible Light
Length of Day
Tomorrow will be .
, % of the Moon is Illuminated

Today's Extremes

State Highs State Lows

Community

WunderPhotos

Upload Photos

1,808,901 photos uploaded!

WunderBlogs® & News

Nearby

Air Quality

  Air Quality AQ Index Pollutant
Not available.

Snow Depth

Station Depth Elevation

Earthquake Activity

City Distance Mag. Time & Date
Minimum magnitude displayed is 2.5.

Coastal Water Temperatures

Place Temperature

Stations

Nearby Weather Stations

Station Location Temp. Windchill Dew Point Humidity Wind Precip. Elev Updated Type